Terminal Aerodrome Forecast
Issued by NWS

Home | Current Version | Previous Version | Text Only | Print | Product List | Glossary On
Versions: 1 2 3 4 5 6 7 8 9 10 11 12 13 14 15 16 17 18 19 20 21 22 23
000
FTUS44 KLZK 270800 AAA
TAFPBF
TAF AMD
KPBF 270821Z 2708/2806 08008KT P6SM -SHRA VCTS BKN060CB
      TEMPO 2709/2713 4SM -TSRA BR BKN035CB
     FM271300 07008G16KT P6SM VCSH BKN035 OVC100
     FM280200 06010KT 5SM -SHRA VCTS BKN035CB=

USA.gov is the U.S. government's official web portal to all federal, state and local government web resources and services.